Pythagoras — C6ZO4 — position and weather

sailwx.info

Track history (hours):
 
Tides and Currents Weather Stations Pressure Air Temp Water Temp Dewpoint Dewpoint Depression Visibility Wind Speed Wind Dir Waves Ship Positions

Pythagoras

Last reported at 2016-Aug-04 22:14 UTC. Time now 2016-Aug-31 06:05 UTC.
Position N 32°34' E 031°03'.
Warning: this ship's position is 26 days out of date.

Length 190 m; draft 12.4 m.

Type: Cargo ship. MMSI: 311061300.

Date/timePositionNaut miles runAvg speedWind from/ knotsBaromVisibWave heightAir tempDewpointWater temp
2016-Aug-04 22:14N 32°34' E 031°03'3613.5
2016-Aug-04 19:34N 33°01' E 030°34'1613.8
2016-Aug-04 18:25N 33°12' E 030°21'1213.8
2016-Aug-04 17:33N 33°21' E 030°11'1413.8
2016-Aug-04 16:32N 33°32' E 030°00'1313.8
2016-Aug-04 15:33N 33°42' E 029°49'1413.7
2016-Aug-04 14:33N 33°52' E 029°38'4413.5
2016-Aug-04 11:16N 34°25' E 029°02'23813.3
2016-Aug-03 17:23N 37°29' E 025°56'  
2016-Jul-29 02:04N 40°52' E 028°32'812.9
2016-Jul-29 01:26N 40°54' E 028°42'1011.4
2016-Jul-29 00:32N 40°57' E 028°55'0 0.4
2016-Jul-28 23:28N 40°57' E 028°55'0 0.0
2016-Jul-28 22:33N 40°57' E 028°55'0 0.0
2016-Jul-28 20:22N 40°57' E 028°55'0 0.1
2016-Jul-28 17:21N 40°57' E 028°55'4 5.5
2016-Jul-28 16:33N 41°00' E 028°60'  
Track history (hours):
 
Tides and Currents Weather Stations Pressure Air Temp Water Temp Dewpoint Dewpoint Depression Visibility Wind Speed Wind Dir Waves Ship Positions

Pythagoras

Last reported at 2016-Aug-04 22:14 UTC. Time now 2016-Aug-31 06:05 UTC.
Position N 32°34' E 031°03'.
Warning: this ship's position is 26 days out of date.

Length 190 m; draft 12.4 m.

Type: Cargo ship. MMSI: 311061300.

Date/timePositionNaut miles runAvg speedWind from/ knotsBaromVisibWave heightAir tempDewpointWater temp
2016-Aug-04 22:14N 32°34' E 031°03'3613.5
2016-Aug-04 19:34N 33°01' E 030°34'1613.8
2016-Aug-04 18:25N 33°12' E 030°21'1213.8
2016-Aug-04 17:33N 33°21' E 030°11'1413.8
2016-Aug-04 16:32N 33°32' E 030°00'1313.8
2016-Aug-04 15:33N 33°42' E 029°49'1413.7
2016-Aug-04 14:33N 33°52' E 029°38'4413.5
2016-Aug-04 11:16N 34°25' E 029°02'23813.3
2016-Aug-03 17:23N 37°29' E 025°56'  
2016-Jul-29 02:04N 40°52' E 028°32'812.9
2016-Jul-29 01:26N 40°54' E 028°42'1011.4
2016-Jul-29 00:32N 40°57' E 028°55'0 0.4
2016-Jul-28 23:28N 40°57' E 028°55'0 0.0
2016-Jul-28 22:33N 40°57' E 028°55'0 0.0
2016-Jul-28 20:22N 40°57' E 028°55'0 0.1
2016-Jul-28 17:21N 40°57' E 028°55'4 5.5
2016-Jul-28 16:33N 41°00' E 028°60'  

Dump ship's entire track history